createdAt,value
2018-12-07T00:00:57.811Z,1007.29
2018-12-07T00:02:51.242Z,1007.26
2018-12-07T00:03:56.855Z,1007.30
2018-12-07T00:05:45.470Z,1007.26
2018-12-07T00:06:45.178Z,1007.25
2018-12-07T00:08:40.067Z,1007.21
2018-12-07T00:09:39.328Z,1007.21
2018-12-07T00:11:33.577Z,1007.16
2018-12-07T00:12:33.650Z,1007.15
2018-12-07T00:14:28.088Z,1007.12
2018-12-07T00:15:27.754Z,1007.17
2018-12-07T00:17:21.293Z,1007.09
2018-12-07T00:18:21.766Z,1007.11
2018-12-07T00:20:14.834Z,1007.08
2018-12-07T00:21:15.747Z,1007.01
2018-12-07T00:23:21.680Z,1007.00
2018-12-07T00:24:22.930Z,1006.97
2018-12-07T00:26:20.216Z,1006.95
2018-12-07T00:27:15.911Z,1006.92
2018-12-07T00:29:09.062Z,1006.90
2018-12-07T00:30:09.633Z,1006.89
2018-12-07T00:32:03.508Z,1006.85
2018-12-07T00:33:03.398Z,1006.80
2018-12-07T00:34:58.653Z,1006.83
2018-12-07T00:35:58.843Z,1006.86
2018-12-07T00:37:52.830Z,1006.83
2018-12-07T00:38:52.841Z,1006.83
2018-12-07T00:40:47.193Z,1006.79
2018-12-07T00:41:47.014Z,1006.78
2018-12-07T00:43:41.274Z,1006.75
2018-12-07T00:44:41.199Z,1006.73
2018-12-07T00:46:35.454Z,1006.74
2018-12-07T00:47:35.443Z,1006.72
2018-12-07T00:49:29.894Z,1006.69
2018-12-07T00:50:29.907Z,1006.67
2018-12-07T00:52:23.248Z,1006.67
2018-12-07T00:53:23.333Z,1006.66
2018-12-07T00:55:16.512Z,1006.70
2018-12-07T00:56:16.488Z,1006.67
2018-12-07T00:58:10.627Z,1006.58
2018-12-07T00:59:10.538Z,1006.58
2018-12-07T01:01:03.925Z,1006.58
2018-12-07T01:02:04.078Z,1006.49
2018-12-07T01:03:58.615Z,1006.49
2018-12-07T01:04:58.225Z,1006.46
2018-12-07T01:06:52.653Z,1006.45
2018-12-07T01:07:52.465Z,1006.45
2018-12-07T01:09:47.034Z,1006.39
2018-12-07T01:10:46.869Z,1006.38
2018-12-07T01:12:40.259Z,1006.37
2018-12-07T01:13:40.039Z,1006.40
2018-12-07T01:15:33.429Z,1006.32
2018-12-07T01:16:33.775Z,1006.34
2018-12-07T01:18:26.940Z,1006.33
2018-12-07T01:19:26.846Z,1006.33
2018-12-07T01:21:19.981Z,1006.33
2018-12-07T01:22:19.840Z,1006.26
2018-12-07T01:24:13.520Z,1006.19
2018-12-07T01:25:12.986Z,1006.19
2018-12-07T01:27:07.889Z,1006.13
2018-12-07T01:28:07.257Z,1006.16
2018-12-07T01:30:02.232Z,1006.18
2018-12-07T01:31:01.601Z,1006.13
2018-12-07T01:32:55.671Z,1006.12
2018-12-07T01:33:55.070Z,1006.10
2018-12-07T01:35:49.450Z,1006.10
2018-12-07T01:36:49.159Z,1006.09
2018-12-07T01:38:43.742Z,1006.03
2018-12-07T01:39:43.541Z,1006.05
2018-12-07T01:41:37.919Z,1006.04
2018-12-07T01:42:37.774Z,1006.09
2018-12-07T01:44:31.111Z,1006.00
2018-12-07T01:45:31.222Z,1006.03
2018-12-07T01:47:25.539Z,1006.00
2018-12-07T01:48:25.355Z,1005.94
2018-12-07T01:50:20.127Z,1005.96
2018-12-07T01:51:19.635Z,1005.91
2018-12-07T01:53:14.214Z,1005.85
2018-12-07T01:54:14.015Z,1005.85
2018-12-07T01:56:07.560Z,1005.89
2018-12-07T01:57:07.409Z,1005.85
2018-12-07T01:59:01.674Z,1005.83
2018-12-07T02:00:01.526Z,1005.86
2018-12-07T02:01:55.902Z,1005.81
2018-12-07T02:02:55.721Z,1005.82
2018-12-07T02:04:50.456Z,1005.79
2018-12-07T02:05:50.360Z,1005.76
2018-12-07T02:07:44.556Z,1005.72
2018-12-07T02:08:44.672Z,1005.69
2018-12-07T02:10:39.136Z,1005.68
2018-12-07T02:11:38.453Z,1005.67
2018-12-07T02:13:33.085Z,1005.70
2018-12-07T02:14:33.063Z,1005.69
2018-12-07T02:16:26.422Z,1005.65
2018-12-07T02:17:26.209Z,1005.59
2018-12-07T02:19:21.148Z,1005.61
2018-12-07T02:20:20.448Z,1005.59
2018-12-07T02:22:14.979Z,1005.55
2018-12-07T02:23:14.752Z,1005.56
2018-12-07T02:25:08.242Z,1005.48
2018-12-07T02:26:07.923Z,1005.52
2018-12-07T02:28:02.465Z,1005.48
2018-12-07T02:29:02.501Z,1005.50
2018-12-07T02:30:56.752Z,1005.44
2018-12-07T02:31:56.759Z,1005.44
2018-12-07T02:33:50.988Z,1005.44
2018-12-07T02:34:50.729Z,1005.43
2018-12-07T02:36:45.103Z,1005.42
2018-12-07T02:37:45.012Z,1005.40
2018-12-07T02:39:39.840Z,1005.37
2018-12-07T02:40:39.409Z,1005.36
2018-12-07T02:42:33.942Z,1005.37
2018-12-07T02:43:33.344Z,1005.32
2018-12-07T02:45:28.012Z,1005.31
2018-12-07T02:46:28.077Z,1005.34
2018-12-07T02:48:22.597Z,1005.29
2018-12-07T02:49:22.228Z,1005.25
2018-12-07T02:51:17.015Z,1005.28
2018-12-07T02:52:16.463Z,1005.26
2018-12-07T02:54:11.433Z,1005.22
2018-12-07T02:55:10.934Z,1005.24
2018-12-07T02:57:05.248Z,1005.20
2018-12-07T02:58:05.179Z,1005.23
2018-12-07T02:59:59.700Z,1005.15
2018-12-07T03:00:59.343Z,1005.14
2018-12-07T03:02:53.783Z,1005.12
2018-12-07T03:03:54.161Z,1005.07
2018-12-07T03:05:48.079Z,1005.03
2018-12-07T03:06:48.194Z,1005.03
2018-12-07T03:08:42.774Z,1004.99
2018-12-07T03:09:42.373Z,1005.00
2018-12-07T03:11:36.784Z,1004.98
2018-12-07T03:12:37.250Z,1004.88
2018-12-07T03:14:31.075Z,1004.86
2018-12-07T03:15:30.880Z,1004.83
2018-12-07T03:17:25.590Z,1004.85
2018-12-07T03:18:25.623Z,1004.85
2018-12-07T03:20:20.000Z,1004.77
2018-12-07T03:21:19.534Z,1004.81
2018-12-07T03:23:14.319Z,1004.80
2018-12-07T03:24:13.719Z,1004.80
2018-12-07T03:26:06.831Z,1004.75
2018-12-07T03:27:06.435Z,1004.74
2018-12-07T03:29:01.303Z,1004.75
2018-12-07T03:30:00.732Z,1004.74
2018-12-07T03:31:54.409Z,1004.72
2018-12-07T03:32:54.381Z,1004.71
2018-12-07T03:34:49.050Z,1004.71
2018-12-07T03:35:48.309Z,1004.68
2018-12-07T03:37:43.304Z,1004.61
2018-12-07T03:38:42.652Z,1004.65
2018-12-07T03:40:37.254Z,1004.58
2018-12-07T03:41:37.580Z,1004.59
2018-12-07T03:43:31.545Z,1004.58
2018-12-07T03:44:31.346Z,1004.56
2018-12-07T03:46:25.810Z,1004.57
2018-12-07T03:47:25.770Z,1004.54
2018-12-07T03:49:20.282Z,1004.49
2018-12-07T03:50:19.916Z,1004.48
2018-12-07T03:52:13.457Z,1004.41
2018-12-07T03:53:13.088Z,1004.41
2018-12-07T03:55:08.187Z,1004.41
2018-12-07T03:56:07.744Z,1004.40
2018-12-07T03:58:02.514Z,1004.41
2018-12-07T03:59:01.746Z,1004.37
2018-12-07T04:00:56.446Z,1004.32
2018-12-07T04:01:55.906Z,1004.31
2018-12-07T04:03:50.377Z,1004.34
2018-12-07T04:04:50.280Z,1004.32
2018-12-07T04:06:44.084Z,1004.28
2018-12-07T04:07:43.380Z,1004.26
2018-12-07T04:09:36.932Z,1004.22
2018-12-07T04:10:36.747Z,1004.24
2018-12-07T04:12:31.240Z,1004.19
2018-12-07T04:13:31.137Z,1004.13
2018-12-07T04:15:24.573Z,1004.09
2018-12-07T04:16:24.483Z,1004.05
2018-12-07T04:18:17.873Z,1004.01
2018-12-07T04:19:17.616Z,1004.03
2018-12-07T04:21:12.258Z,1003.99
2018-12-07T04:22:11.772Z,1003.98
2018-12-07T04:24:06.308Z,1003.98
2018-12-07T04:25:06.288Z,1003.96
2018-12-07T04:26:59.630Z,1003.94
2018-12-07T04:27:59.586Z,1003.90
2018-12-07T04:29:54.294Z,1003.83
2018-12-07T04:30:53.563Z,1003.82
2018-12-07T04:32:48.399Z,1003.79
2018-12-07T04:33:48.335Z,1003.81
2018-12-07T04:35:41.269Z,1003.79
2018-12-07T04:36:41.208Z,1003.80
2018-12-07T04:38:34.661Z,1003.78
2018-12-07T04:39:34.558Z,1003.75
2018-12-07T04:41:28.826Z,1003.73
2018-12-07T04:42:28.720Z,1003.74
2018-12-07T04:44:22.179Z,1003.67
2018-12-07T04:45:21.926Z,1003.66
2018-12-07T04:47:16.288Z,1003.72
2018-12-07T04:48:16.223Z,1003.67
2018-12-07T04:50:09.479Z,1003.70
2018-12-07T04:51:09.474Z,1003.68
2018-12-07T04:53:02.797Z,1003.69
2018-12-07T04:54:02.736Z,1003.65
2018-12-07T04:55:56.045Z,1003.62
2018-12-07T04:56:56.065Z,1003.61
2018-12-07T04:58:49.340Z,1003.60
2018-12-07T04:59:49.290Z,1003.59
2018-12-07T05:01:42.874Z,1003.58
2018-12-07T05:02:42.787Z,1003.60
2018-12-07T05:04:35.885Z,1003.58
2018-12-07T05:05:35.936Z,1003.57
2018-12-07T05:07:30.137Z,1003.53
2018-12-07T05:08:30.179Z,1003.53
2018-12-07T05:10:23.449Z,1003.45
2018-12-07T05:11:23.400Z,1003.43
2018-12-07T05:13:17.852Z,1003.42
2018-12-07T05:14:17.675Z,1003.43
2018-12-07T05:16:11.007Z,1003.37
2018-12-07T05:17:11.005Z,1003.40
2018-12-07T05:19:04.280Z,1003.36
2018-12-07T05:20:04.220Z,1003.37
2018-12-07T05:21:57.568Z,1003.35
2018-12-07T05:22:57.525Z,1003.34
2018-12-07T05:24:50.825Z,1003.30
2018-12-07T05:25:50.782Z,1003.26
2018-12-07T05:27:44.155Z,1003.28
2018-12-07T05:28:44.006Z,1003.19
2018-12-07T05:30:37.454Z,1003.24
2018-12-07T05:31:37.312Z,1003.20
2018-12-07T05:33:30.659Z,1003.15
2018-12-07T05:34:30.567Z,1003.14
2018-12-07T05:36:23.916Z,1003.12
2018-12-07T05:37:23.841Z,1003.12
2018-12-07T05:39:17.440Z,1003.06
2018-12-07T05:40:17.080Z,1003.04
2018-12-07T05:42:10.432Z,1003.02
2018-12-07T05:43:10.362Z,1003.00
2018-12-07T05:45:03.692Z,1002.94
2018-12-07T05:46:03.642Z,1002.95
2018-12-07T05:47:56.984Z,1002.94
2018-12-07T05:48:56.957Z,1002.93
2018-12-07T05:50:50.279Z,1002.90
2018-12-07T05:51:50.217Z,1002.93
2018-12-07T05:53:43.477Z,1002.92
2018-12-07T05:54:43.472Z,1002.94
2018-12-07T05:56:36.832Z,1002.92
2018-12-07T05:57:36.734Z,1002.91
2018-12-07T05:59:30.043Z,1002.86
2018-12-07T06:00:29.991Z,1002.86
2018-12-07T06:02:23.295Z,1002.84
2018-12-07T06:03:23.312Z,1002.80
2018-12-07T06:05:16.573Z,1002.81
2018-12-07T06:06:16.613Z,1002.78
2018-12-07T06:08:10.851Z,1002.77
2018-12-07T06:09:10.815Z,1002.69
2018-12-07T06:11:04.103Z,1002.65
2018-12-07T06:12:04.096Z,1002.67
2018-12-07T06:13:57.396Z,1002.68
2018-12-07T06:14:57.357Z,1002.61
2018-12-07T06:16:51.658Z,1002.57
2018-12-07T06:17:51.611Z,1002.57
2018-12-07T06:19:44.917Z,1002.56
2018-12-07T06:20:44.902Z,1002.58
2018-12-07T06:22:38.183Z,1002.56
2018-12-07T06:23:38.145Z,1002.55
2018-12-07T06:25:31.431Z,1002.48
2018-12-07T06:26:31.451Z,1002.49
2018-12-07T06:28:24.721Z,1002.51
2018-12-07T06:29:24.778Z,1002.47
2018-12-07T06:31:17.971Z,1002.40
2018-12-07T06:32:17.916Z,1002.45
2018-12-07T06:34:11.291Z,1002.46
2018-12-07T06:35:11.199Z,1002.43
2018-12-07T06:37:05.578Z,1002.41
2018-12-07T06:38:05.483Z,1002.41
2018-12-07T06:39:58.768Z,1002.40
2018-12-07T06:40:58.754Z,1002.41
2018-12-07T06:42:52.193Z,1002.38
2018-12-07T06:43:52.028Z,1002.33
2018-12-07T06:45:45.374Z,1002.36
2018-12-07T06:46:45.284Z,1002.35
2018-12-07T06:48:38.658Z,1002.33
2018-12-07T06:49:38.614Z,1002.30
2018-12-07T06:51:31.951Z,1002.26
2018-12-07T06:52:31.891Z,1002.23
2018-12-07T06:54:25.263Z,1002.20
2018-12-07T06:55:25.182Z,1002.23
2018-12-07T06:57:18.499Z,1002.16
2018-12-07T06:58:18.462Z,1002.13
2018-12-07T07:00:11.762Z,1002.12
2018-12-07T07:01:11.744Z,1002.12
2018-12-07T07:03:05.088Z,1002.11
2018-12-07T07:04:05.072Z,1002.11
2018-12-07T07:05:58.404Z,1002.08
2018-12-07T07:06:58.353Z,1002.13
2018-12-07T07:08:51.628Z,1002.11
2018-12-07T07:09:51.640Z,1002.09
2018-12-07T07:11:44.914Z,1002.06
2018-12-07T07:12:44.941Z,1002.04
2018-12-07T07:14:38.204Z,1002.05
2018-12-07T07:15:38.154Z,1002.00
2018-12-07T07:17:31.414Z,1002.04
2018-12-07T07:18:31.384Z,1002.02
2018-12-07T07:20:24.705Z,1002.00
2018-12-07T07:21:24.689Z,1002.03
2018-12-07T07:23:18.019Z,1001.97
2018-12-07T07:24:17.960Z,1001.96
2018-12-07T07:26:11.250Z,1001.97
2018-12-07T07:27:18.956Z,1001.95
2018-12-07T07:29:12.205Z,1001.95
2018-12-07T07:30:13.575Z,1001.94
2018-12-07T07:31:57.801Z,1001.94
2018-12-07T07:33:05.528Z,1001.87
2018-12-07T07:34:51.028Z,1001.87
2018-12-07T07:35:58.650Z,1001.79
2018-12-07T07:37:51.983Z,1001.79
2018-12-07T07:38:51.900Z,1001.81
2018-12-07T07:40:46.269Z,1001.78
2018-12-07T07:41:46.153Z,1001.77
2018-12-07T07:43:38.445Z,1001.78
2018-12-07T07:44:38.450Z,1001.77
2018-12-07T07:46:24.139Z,1001.77
2018-12-07T07:47:31.671Z,1001.75
2018-12-07T07:49:25.985Z,1001.75
2018-12-07T07:50:17.359Z,1001.71
2018-12-07T07:52:10.707Z,1001.67
2018-12-07T07:53:18.224Z,1001.66
2018-12-07T07:55:03.895Z,1001.64
2018-12-07T07:56:15.377Z,1001.61
2018-12-07T07:57:57.234Z,1001.62
2018-12-07T07:59:05.764Z,1001.68
2018-12-07T08:00:58.126Z,1001.59
2018-12-07T08:01:58.044Z,1001.57
2018-12-07T08:03:52.350Z,1001.57
2018-12-07T08:04:52.295Z,1001.56
2018-12-07T08:06:44.588Z,1001.56
2018-12-07T08:07:44.589Z,1001.54
2018-12-07T08:09:38.945Z,1001.53
2018-12-07T08:10:30.195Z,1001.53
2018-12-07T08:12:31.163Z,1001.48
2018-12-07T08:13:23.492Z,1001.49
2018-12-07T08:15:24.475Z,1001.45
2018-12-07T08:16:25.419Z,1001.42
2018-12-07T08:18:19.824Z,1001.44
2018-12-07T08:19:18.780Z,1001.43
2018-12-07T08:21:04.412Z,1001.45
2018-12-07T08:22:04.341Z,1001.46
2018-12-07T08:23:58.651Z,1001.49
2018-12-07T08:25:06.304Z,1001.43
2018-12-07T08:26:52.956Z,1001.38
2018-12-07T08:28:00.602Z,1001.42
2018-12-07T08:29:53.849Z,1001.44
2018-12-07T08:30:53.868Z,1001.42
2018-12-07T08:32:40.523Z,1001.42
2018-12-07T08:33:48.083Z,1001.41
2018-12-07T08:35:33.847Z,1001.36
2018-12-07T08:36:42.677Z,1001.38
2018-12-07T08:38:27.132Z,1001.35
2018-12-07T08:39:35.156Z,1001.37
2018-12-07T08:41:21.486Z,1001.38
2018-12-07T08:42:28.958Z,1001.34
2018-12-07T08:44:22.212Z,1001.33
2018-12-07T08:45:22.378Z,1001.34
2018-12-07T08:47:07.852Z,1001.34
2018-12-07T08:48:16.588Z,1001.31
2018-12-07T08:50:09.813Z,1001.41
2018-12-07T08:51:09.750Z,1001.32
2018-12-07T08:52:54.409Z,1001.32
2018-12-07T08:54:02.151Z,1001.24
2018-12-07T08:55:57.394Z,1001.22
2018-12-07T08:56:48.686Z,1001.23
2018-12-07T08:58:42.278Z,1001.21
2018-12-07T08:59:49.483Z,1001.18
2018-12-07T09:01:43.811Z,1001.09
2018-12-07T09:02:42.733Z,1001.12
2018-12-07T09:04:36.207Z,1001.07
2018-12-07T09:05:36.192Z,1001.12
2018-12-07T09:07:21.724Z,1001.08
2018-12-07T09:08:29.346Z,1001.02
2018-12-07T09:10:15.217Z,1000.93
2018-12-07T09:11:23.662Z,1000.91
2018-12-07T09:13:09.207Z,1000.87
2018-12-07T09:14:16.812Z,1000.84
2018-12-07T09:16:10.235Z,1000.82
2018-12-07T09:17:11.265Z,1000.82
2018-12-07T09:18:56.243Z,1000.81
2018-12-07T09:20:04.363Z,1000.76
2018-12-07T09:21:50.306Z,1000.76
2018-12-07T09:22:57.700Z,1000.76
2018-12-07T09:24:43.457Z,1000.76
2018-12-07T09:25:52.000Z,1000.79
2018-12-07T09:27:45.233Z,1000.69
2018-12-07T09:28:47.218Z,1000.64
2018-12-07T09:30:30.969Z,1000.67
2018-12-07T09:31:30.942Z,1000.66
2018-12-07T09:33:24.249Z,1000.64
2018-12-07T09:34:24.082Z,1000.60
2018-12-07T09:36:27.075Z,1000.62
2018-12-07T09:37:28.848Z,1000.61
2018-12-07T09:39:11.992Z,1000.56
2018-12-07T09:40:20.264Z,1000.58
2018-12-07T09:42:05.318Z,1000.49
2018-12-07T09:43:05.003Z,1000.49
2018-12-07T09:45:06.893Z,1000.46
2018-12-07T09:45:58.260Z,1000.40
2018-12-07T09:47:51.541Z,1000.34
2018-12-07T09:48:51.474Z,1000.27
2018-12-07T09:50:44.820Z,1000.24
2018-12-07T09:51:52.456Z,1000.25
2018-12-07T09:53:47.731Z,1000.17
2018-12-07T09:54:39.023Z,1000.15
2018-12-07T09:56:33.373Z,1000.07
2018-12-07T09:57:41.995Z,1000.07
2018-12-07T09:59:26.936Z,1000.04
2018-12-07T10:00:34.205Z,999.98
2018-12-07T10:02:19.973Z,999.92
2018-12-07T10:03:27.516Z,999.83
2018-12-07T10:05:13.121Z,999.78
2018-12-07T10:06:20.860Z,999.70
2018-12-07T10:08:06.455Z,999.63
2018-12-07T10:09:14.196Z,999.66
2018-12-07T10:11:00.701Z,999.61
2018-12-07T10:12:09.470Z,999.68
2018-12-07T10:13:53.978Z,999.73
2018-12-07T10:15:01.751Z,999.71
2018-12-07T10:16:47.402Z,999.74
2018-12-07T10:17:47.231Z,999.73
2018-12-07T10:19:41.572Z,999.67
2018-12-07T10:20:41.551Z,999.69
2018-12-07T10:22:37.817Z,999.67
2018-12-07T10:23:35.853Z,999.58
2018-12-07T10:25:30.147Z,999.63
2018-12-07T10:26:37.979Z,999.54
2018-12-07T10:28:23.646Z,999.45
2018-12-07T10:29:23.403Z,999.37
2018-12-07T10:31:16.985Z,999.33
2018-12-07T10:32:25.251Z,999.29
2018-12-07T10:34:11.391Z,999.34
2018-12-07T10:35:10.923Z,999.31
2018-12-07T10:37:04.228Z,999.27
2018-12-07T10:38:04.398Z,999.17
2018-12-07T10:39:58.583Z,999.08
2018-12-07T10:41:06.140Z,999.06
2018-12-07T10:42:53.106Z,999.04
2018-12-07T10:43:52.872Z,999.04
2018-12-07T10:45:47.030Z,999.02
2018-12-07T10:46:55.649Z,998.96
2018-12-07T10:48:41.369Z,998.91
2018-12-07T10:49:41.436Z,998.95
2018-12-07T10:51:34.911Z,998.91
2018-12-07T10:52:34.824Z,998.84
2018-12-07T10:54:29.350Z,998.78
2018-12-07T10:55:28.200Z,998.79
2018-12-07T10:57:21.114Z,998.79
2018-12-07T10:58:21.291Z,998.76
2018-12-07T11:00:14.458Z,998.68
2018-12-07T11:01:22.013Z,998.65
2018-12-07T11:03:16.345Z,998.72
2018-12-07T11:04:07.859Z,998.67
2018-12-07T11:06:01.193Z,998.72
2018-12-07T11:07:01.168Z,998.68
2018-12-07T11:08:54.268Z,998.54
2018-12-07T11:09:54.293Z,998.53
2018-12-07T11:11:48.605Z,998.48
2018-12-07T11:12:56.188Z,998.43
2018-12-07T11:14:42.945Z,998.45
2018-12-07T11:15:42.908Z,998.38
2018-12-07T11:17:36.138Z,998.31
2018-12-07T11:18:43.673Z,998.30
2018-12-07T11:20:29.385Z,998.19
2018-12-07T11:21:37.003Z,998.21
2018-12-07T11:23:23.709Z,998.11
2018-12-07T11:24:23.615Z,998.10
2018-12-07T11:26:17.083Z,998.07
2018-12-07T11:27:16.973Z,998.07
2018-12-07T11:29:11.209Z,998.08
2018-12-07T11:30:11.132Z,997.99
2018-12-07T11:32:05.619Z,998.00
2018-12-07T11:33:05.500Z,997.96
2018-12-07T11:34:59.709Z,997.90
2018-12-07T11:36:08.501Z,997.90
2018-12-07T11:37:54.094Z,997.77
2018-12-07T11:38:54.103Z,997.78
2018-12-07T11:40:48.512Z,997.61
2018-12-07T11:41:48.280Z,997.58
2018-12-07T11:43:42.735Z,997.45
2018-12-07T11:44:42.512Z,997.43
2018-12-07T11:46:36.062Z,997.34
2018-12-07T11:47:44.550Z,997.25
2018-12-07T11:49:30.111Z,997.19
2018-12-07T11:50:30.437Z,997.22
2018-12-07T11:52:24.539Z,997.09
2018-12-07T11:53:25.034Z,997.07
2018-12-07T11:55:19.041Z,996.95
2018-12-07T11:56:18.601Z,996.95
2018-12-07T11:58:11.998Z,996.88
2018-12-07T11:59:11.900Z,996.80
2018-12-07T12:01:05.275Z,996.72
2018-12-07T12:02:05.151Z,996.67
2018-12-07T12:03:58.716Z,996.68
2018-12-07T12:07:16.382Z,996.57
2018-12-07T12:12:56.923Z,996.36
2018-12-07T12:30:07.703Z,995.99
2018-12-07T12:34:14.772Z,995.83
2018-12-07T12:35:18.998Z,995.74
2018-12-07T12:39:17.808Z,995.66
2018-12-07T12:46:11.823Z,995.52
2018-12-07T12:47:13.070Z,995.36
2018-12-07T12:49:39.514Z,995.21
2018-12-07T12:52:33.669Z,995.04
2018-12-07T12:56:54.047Z,994.89
2018-12-07T13:04:56.261Z,994.62
2018-12-07T13:07:50.172Z,994.68
2018-12-07T13:12:53.136Z,994.64
2018-12-07T13:15:47.520Z,994.65
2018-12-07T13:18:37.210Z,994.73
2018-12-07T13:19:51.850Z,994.76
2018-12-07T13:21:45.230Z,994.73
2018-12-07T13:22:43.459Z,994.73
2018-12-07T13:25:26.394Z,994.74
2018-12-07T13:26:22.975Z,994.79
2018-12-07T13:28:11.500Z,994.77
2018-12-07T13:29:20.105Z,994.82
2018-12-07T13:31:19.012Z,994.75
2018-12-07T13:34:04.198Z,994.82
2018-12-07T13:36:59.696Z,994.86
2018-12-07T13:38:00.982Z,994.85
2018-12-07T13:42:26.639Z,994.69
2018-12-07T13:50:55.417Z,994.49
2018-12-07T13:51:57.844Z,994.49
2018-12-07T13:53:43.711Z,994.41
2018-12-07T13:57:04.442Z,994.25
2018-12-07T14:01:14.518Z,994.13
2018-12-07T14:02:13.656Z,994.07
2018-12-07T14:04:15.960Z,994.09
2018-12-07T14:05:32.049Z,994.04
2018-12-07T14:07:24.032Z,994.00
2018-12-07T14:08:22.985Z,993.97
2018-12-07T14:10:04.919Z,994.05
2018-12-07T14:11:14.351Z,993.97
2018-12-07T14:13:11.157Z,993.85
2018-12-07T14:14:08.209Z,993.78
2018-12-07T14:15:53.287Z,993.61
2018-12-07T14:17:02.901Z,993.59
2018-12-07T14:19:54.183Z,993.54
2018-12-07T14:22:42.996Z,993.55
2018-12-07T14:25:10.964Z,993.50
2018-12-07T14:28:27.008Z,993.44
2018-12-07T14:31:09.349Z,993.36
2018-12-07T14:32:17.733Z,993.30
2018-12-07T14:34:13.823Z,993.29
2018-12-07T14:35:12.595Z,993.18
2018-12-07T14:37:21.866Z,993.12
2018-12-07T14:38:12.705Z,993.15
2018-12-07T14:40:07.655Z,993.13
2018-12-07T14:41:17.708Z,992.99
2018-12-07T14:43:13.280Z,993.01
2018-12-07T14:44:03.431Z,992.90
2018-12-07T14:48:09.107Z,992.79
2018-12-07T14:49:08.988Z,992.79
2018-12-07T14:51:25.543Z,992.76
2018-12-07T14:53:50.682Z,992.84
2018-12-07T14:54:41.980Z,992.90
2018-12-07T14:56:46.162Z,992.89
2018-12-07T14:57:45.755Z,992.84
2018-12-07T14:59:32.096Z,992.84
2018-12-07T15:00:32.001Z,992.80
2018-12-07T15:02:39.261Z,992.70
2018-12-07T15:03:27.387Z,992.67
2018-12-07T15:05:21.633Z,992.60
2018-12-07T15:06:21.717Z,992.56
2018-12-07T15:08:26.984Z,992.49
2018-12-07T15:09:17.293Z,992.48
2018-12-07T15:11:11.766Z,992.38
2018-12-07T15:12:11.390Z,992.39
2018-12-07T15:14:15.328Z,992.42
2018-12-07T15:15:14.946Z,992.36
2018-12-07T15:17:03.357Z,992.34
2018-12-07T15:18:03.318Z,992.40
2018-12-07T15:19:58.101Z,992.44
2018-12-07T15:20:59.589Z,992.32
2018-12-07T15:23:00.075Z,992.36
2018-12-07T15:23:51.656Z,992.48
2018-12-07T15:25:45.344Z,992.34
2018-12-07T15:26:45.189Z,992.31
2018-12-07T15:28:40.740Z,992.30
2018-12-07T15:29:40.306Z,992.32
2018-12-07T15:31:47.194Z,992.26
2018-12-07T15:32:36.591Z,992.23
2018-12-07T15:34:31.229Z,992.10
2018-12-07T15:36:53.456Z,992.01
2018-12-07T15:38:01.659Z,991.99
2018-12-07T15:39:56.858Z,991.98
2018-12-07T15:40:47.188Z,991.88
2018-12-07T15:42:41.042Z,991.84
2018-12-07T15:43:49.005Z,991.88
2018-12-07T15:45:44.322Z,991.90
2018-12-07T15:46:35.550Z,991.86
2018-12-07T15:48:28.702Z,991.77
2018-12-07T15:49:28.784Z,991.74
2018-12-07T15:51:23.074Z,991.74
2018-12-07T15:52:23.027Z,991.62
2018-12-07T15:54:17.389Z,991.56
2018-12-07T15:55:17.212Z,991.51
2018-12-07T15:57:11.658Z,991.42
2018-12-07T15:58:11.528Z,991.47
2018-12-07T16:00:14.741Z,991.49
2018-12-07T16:01:05.688Z,991.44
2018-12-07T16:03:09.893Z,991.39
2018-12-07T16:04:01.568Z,991.39
2018-12-07T16:05:55.808Z,991.29
2018-12-07T16:06:55.505Z,991.29
2018-12-07T16:08:48.794Z,991.25
2018-12-07T16:09:48.637Z,991.25
2018-12-07T16:11:52.008Z,991.24
2018-12-07T16:12:43.024Z,991.27
2018-12-07T16:14:47.354Z,991.15
2018-12-07T16:15:38.470Z,991.18
2018-12-07T16:17:32.717Z,991.14
2018-12-07T16:18:32.693Z,991.19
2018-12-07T16:20:26.693Z,991.06
2018-12-07T16:21:26.614Z,991.04
2018-12-07T16:23:21.267Z,990.97
2018-12-07T16:24:20.937Z,991.03
2018-12-07T16:26:15.428Z,991.03
2018-12-07T16:27:15.246Z,990.94
2018-12-07T16:29:18.616Z,990.91
2018-12-07T16:30:09.514Z,990.87
2018-12-07T16:32:04.352Z,990.86
2018-12-07T16:33:14.231Z,990.80
2018-12-07T16:35:07.276Z,990.72
2018-12-07T16:35:58.219Z,990.79
2018-12-07T16:38:02.525Z,990.72
2018-12-07T16:39:01.550Z,990.69
2018-12-07T16:40:55.767Z,990.65
2018-12-07T16:41:56.674Z,990.73
2018-12-07T16:43:40.800Z,990.63
2018-12-07T16:44:47.752Z,990.61
2018-12-07T16:46:44.781Z,990.60
2018-12-07T16:47:43.413Z,990.55
2018-12-07T16:49:41.855Z,990.57
2018-12-07T16:50:31.731Z,990.53
2018-12-07T16:52:26.969Z,990.57
2018-12-07T16:53:26.565Z,990.53
2018-12-07T16:55:21.274Z,990.54
2018-12-07T16:56:20.768Z,990.58
2018-12-07T16:58:24.049Z,990.56
2018-12-07T16:59:15.042Z,990.60
2018-12-07T17:01:20.436Z,990.57
2018-12-07T17:02:09.239Z,990.58
2018-12-07T17:04:12.191Z,990.55
2018-12-07T17:05:03.662Z,990.57
2018-12-07T17:06:59.114Z,990.52
2018-12-07T17:07:58.830Z,990.50
2018-12-07T17:09:53.781Z,990.50
2018-12-07T17:11:02.782Z,990.47
2018-12-07T17:12:47.657Z,990.54
2018-12-07T17:13:47.602Z,990.53
2018-12-07T17:15:42.389Z,990.50
2018-12-07T17:16:41.941Z,990.47
2018-12-07T17:18:45.043Z,990.44
2018-12-07T17:19:35.913Z,990.41
2018-12-07T17:21:29.392Z,990.43
2018-12-07T17:22:29.099Z,990.52
2018-12-07T17:24:23.459Z,990.78
2018-12-07T17:25:23.471Z,991.06
2018-12-07T17:27:18.026Z,991.38
2018-12-07T17:28:26.548Z,991.40
2018-12-07T17:30:11.301Z,991.37
2018-12-07T17:31:11.173Z,991.46
2018-12-07T17:33:05.548Z,991.44
2018-12-07T17:34:05.356Z,991.44
2018-12-07T17:35:58.579Z,991.43
2018-12-07T17:36:58.520Z,991.42
2018-12-07T17:38:52.875Z,991.60
2018-12-07T17:39:52.780Z,991.64
2018-12-07T17:41:46.096Z,991.64
2018-12-07T17:42:46.163Z,991.69
2018-12-07T17:44:48.045Z,991.68
2018-12-07T17:45:40.389Z,991.67
2018-12-07T17:47:34.801Z,991.72
2018-12-07T17:48:34.572Z,991.71
2018-12-07T17:50:28.027Z,991.74
2018-12-07T17:51:27.941Z,991.77
2018-12-07T17:53:21.145Z,991.76
2018-12-07T17:54:21.763Z,991.81
2018-12-07T17:56:14.947Z,991.89
2018-12-07T17:57:14.378Z,991.88
2018-12-07T17:59:07.624Z,991.85
2018-12-07T18:00:07.787Z,991.82
2018-12-07T18:02:00.927Z,991.85
2018-12-07T18:03:00.916Z,991.90
2018-12-07T18:04:55.229Z,991.86
2018-12-07T18:05:55.380Z,991.89
2018-12-07T18:07:49.449Z,991.99
2018-12-07T18:08:49.436Z,991.96
2018-12-07T18:10:42.907Z,992.04
2018-12-07T18:11:42.683Z,991.97
2018-12-07T18:13:37.227Z,992.04
2018-12-07T18:14:36.821Z,992.02
2018-12-07T18:16:41.151Z,992.03
2018-12-07T18:17:31.131Z,992.15
2018-12-07T18:19:25.845Z,992.30
2018-12-07T18:20:25.632Z,992.23
2018-12-07T18:22:20.293Z,992.19
2018-12-07T18:23:20.074Z,992.21
2018-12-07T18:25:14.889Z,992.28
2018-12-07T18:26:14.516Z,992.29
2018-12-07T18:28:07.970Z,992.35
2018-12-07T18:29:07.906Z,992.46
2018-12-07T18:31:12.323Z,992.43
2018-12-07T18:32:01.932Z,992.37
2018-12-07T18:33:56.199Z,992.49
2018-12-07T18:34:56.069Z,992.57
2018-12-07T18:36:49.535Z,992.77
2018-12-07T18:37:49.485Z,992.98
2018-12-07T18:39:42.680Z,993.14
2018-12-07T18:40:42.679Z,993.05
2018-12-07T18:42:35.536Z,993.30
2018-12-07T18:43:35.661Z,993.38
2018-12-07T18:45:28.883Z,993.46
2018-12-07T18:46:28.843Z,993.71
2018-12-07T18:48:23.169Z,993.63
2018-12-07T18:49:22.967Z,993.88
2018-12-07T18:51:17.210Z,993.91
2018-12-07T18:52:17.359Z,993.85
2018-12-07T18:54:11.678Z,993.89
2018-12-07T18:55:11.509Z,993.91
2018-12-07T18:57:05.864Z,994.00
2018-12-07T18:58:06.026Z,993.98
2018-12-07T18:59:59.157Z,994.03
2018-12-07T19:00:59.137Z,994.13
2018-12-07T19:02:52.374Z,994.16
2018-12-07T19:03:52.292Z,994.16
2018-12-07T19:05:45.564Z,994.22
2018-12-07T19:06:45.576Z,994.24